メインページ
METAR-TAF:

METAR-TAF

空港 :

ベリンハム, ワシントン, アメリカ合衆国

緯度: 48-47-58N, 経度: 122-32-21W, 海抜: 48m

現時点の気象観測

当レポートは34分前の08:53(UTC)に作成
南西の風 4kt
気温 17°C
湿度 77%
気圧 1019 hPa
視程: 16.1km
高度8500ftの雲はほとんどない

METAR: KBLI 030853Z AUTO 22004KT 10SM FEW085 17/13 A3008 RMK AO2 SLP191 60000 T01670133 53004

時間: 02:27 (09:27 UTC)

予報

当レポートは4時間5分前の05:22(UTC)に作成
予報は03日の 06時(UTC)から 04日の 06時(UTC)まで有効
南/南西の風 3kt
視程: 10km
高度8000ftの千切れ雲あり
高度12000ftの曇り
03日の 1000時(UTC)から
の風 8kt
視程: 10km
高度2000ftの雲は散在している
高度4000ftの千切れ雲あり
03日の 1200時(UTC)から
の風 8kt
視程: 10km
高度2000ftの雲は散在している
高度4000ftの曇り
03日の 12時(UTC)から 03日の 16時(UTC)まで一時的に
高度2000ftの曇り
弱いにわか雨
03日の 2100時(UTC)から
南/南西の風 7kt
視程: 10km
高度2500ftの雲は散在している
高度4000ftの千切れ雲あり
04日の 0100時(UTC)から
の風 7kt
視程: 10km
高度5000ftの雲は散在している

TAF: KBLI 030522Z 0306/0406 20003KT P6SM BKN080 OVC120 FM031000 18008KT P6SM SCT020 BKN040 FM031200 18008KT P6SM SCT020 OVC040 TEMPO 0312/0316 -SHRA OVC020 FM032100 21007KT P6SM SCT025 BKN040 FM040100 18007KT P6SM SCT050

4,000以上の空港の気象観測と天気予報(METAR報とTAF報)

利用可能な観測所は地図上に黄色い丸と赤い丸で示す。

丸の上にカーソルを重ねると観測所名を参照できる。

次にクリックすると気象観測と天気予報を参照できる。

マップの切り替え:黒色「×」印の緑ボタンをクリックして拡大、「-」印の緑ボタンをクリックして縮小、緑色の三角印をクリックして隣りの地図に切り替え


METAR-TAF: